createdAt,value
2018-08-22T00:00:57.549Z,19.53
2018-08-22T00:01:57.519Z,19.53
2018-08-22T00:02:57.498Z,19.53
2018-08-22T00:03:57.479Z,19.40
2018-08-22T00:04:57.463Z,19.46
2018-08-22T00:05:57.423Z,19.46
2018-08-22T00:06:57.406Z,19.43
2018-08-22T00:07:57.379Z,19.35
2018-08-22T00:08:57.413Z,19.43
2018-08-22T00:09:57.344Z,19.34
2018-08-22T00:10:57.309Z,19.35
2018-08-22T00:11:57.289Z,19.32
2018-08-22T00:12:57.267Z,19.30
2018-08-22T00:13:57.238Z,19.30
2018-08-22T00:14:57.212Z,19.35
2018-08-22T00:15:57.218Z,19.31
2018-08-22T00:16:57.187Z,19.35
2018-08-22T00:17:57.152Z,19.31
2018-08-22T00:18:57.129Z,19.25
2018-08-22T00:19:57.100Z,19.32
2018-08-22T00:20:57.085Z,19.34
2018-08-22T00:21:57.052Z,19.35
2018-08-22T00:22:57.029Z,19.27
2018-08-22T00:23:57.007Z,19.28
2018-08-22T00:24:56.981Z,19.30
2018-08-22T00:25:56.965Z,19.25
2018-08-22T00:26:56.990Z,19.16
2018-08-22T00:27:56.909Z,19.24
2018-08-22T00:28:56.896Z,19.09
2018-08-22T00:29:56.864Z,19.16
2018-08-22T00:30:56.838Z,19.27
2018-08-22T00:31:56.822Z,19.09
2018-08-22T00:32:58.181Z,19.20
2018-08-22T00:33:58.174Z,19.17
2018-08-22T00:34:57.173Z,19.07
2018-08-22T00:35:56.721Z,19.10
2018-08-22T00:36:56.703Z,19.23
2018-08-22T00:37:57.359Z,19.15
2018-08-22T00:38:56.656Z,19.16
2018-08-22T00:39:56.632Z,19.10
2018-08-22T00:40:56.606Z,19.07
2018-08-22T00:41:56.583Z,19.09
2018-08-22T00:42:56.569Z,19.15
2018-08-22T00:43:56.533Z,19.13
2018-08-22T00:44:56.518Z,19.12
2018-08-22T00:45:56.491Z,19.10
2018-08-22T00:46:56.463Z,19.09
2018-08-22T00:47:56.443Z,19.09
2018-08-22T00:48:56.428Z,19.00
2018-08-22T00:49:56.390Z,19.09
2018-08-22T00:50:56.369Z,19.09
2018-08-22T00:51:56.344Z,19.10
2018-08-22T00:52:56.328Z,19.09
2018-08-22T00:53:56.312Z,19.02
2018-08-22T00:54:56.273Z,18.99
2018-08-22T00:55:56.257Z,19.06
2018-08-22T00:56:56.231Z,19.00
2018-08-22T00:57:56.207Z,19.06
2018-08-22T00:58:56.179Z,19.05
2018-08-22T00:59:56.162Z,18.96
2018-08-22T01:00:56.132Z,19.05
2018-08-22T01:01:56.110Z,18.96
2018-08-22T01:02:56.088Z,18.97
2018-08-22T01:03:56.060Z,18.96
2018-08-22T01:04:56.040Z,18.96
2018-08-22T01:05:56.015Z,18.96
2018-08-22T01:06:55.992Z,18.96
2018-08-22T01:07:55.968Z,19.09
2018-08-22T01:08:55.947Z,18.99
2018-08-22T01:09:55.928Z,19.02
2018-08-22T01:10:55.900Z,18.97
2018-08-22T01:11:55.869Z,19.00
2018-08-22T01:12:55.847Z,19.00
2018-08-22T01:13:55.823Z,18.99
2018-08-22T01:14:55.802Z,19.06
2018-08-22T01:15:55.775Z,19.10
2018-08-22T01:16:55.752Z,19.05
2018-08-22T01:17:55.733Z,19.00
2018-08-22T01:18:55.730Z,19.00
2018-08-22T01:19:55.691Z,19.10
2018-08-22T01:20:55.663Z,19.10
2018-08-22T01:21:55.641Z,19.06
2018-08-22T01:22:55.621Z,19.06
2018-08-22T01:23:55.586Z,19.09
2018-08-22T01:24:55.570Z,19.05
2018-08-22T01:25:55.544Z,19.10
2018-08-22T01:26:55.518Z,19.15
2018-08-22T01:27:55.496Z,19.15
2018-08-22T01:28:55.473Z,19.20
2018-08-22T01:29:55.445Z,19.17
2018-08-22T01:30:55.426Z,19.10
2018-08-22T01:31:55.400Z,19.23
2018-08-22T01:32:55.407Z,19.16
2018-08-22T01:33:55.355Z,19.09
2018-08-22T01:34:55.325Z,19.25
2018-08-22T01:35:55.320Z,19.19
2018-08-22T01:36:55.292Z,19.17
2018-08-22T01:37:55.253Z,19.19
2018-08-22T01:38:55.244Z,19.17
2018-08-22T01:39:55.212Z,19.15
2018-08-22T01:40:55.185Z,19.20
2018-08-22T01:41:55.171Z,19.15
2018-08-22T01:42:55.170Z,19.27
2018-08-22T01:43:55.115Z,19.28
2018-08-22T01:44:55.093Z,19.24
2018-08-22T01:45:55.089Z,19.27
2018-08-22T01:46:55.048Z,19.35
2018-08-22T01:47:55.022Z,19.28
2018-08-22T01:48:55.010Z,19.27
2018-08-22T01:49:54.970Z,19.30
2018-08-22T01:50:54.954Z,19.34
2018-08-22T01:51:54.927Z,19.32
2018-08-22T01:52:54.902Z,19.38
2018-08-22T01:53:54.880Z,19.32
2018-08-22T01:54:54.857Z,19.34
2018-08-22T01:55:54.830Z,19.35
2018-08-22T01:56:54.811Z,19.32
2018-08-22T01:57:54.779Z,19.35
2018-08-22T01:58:54.840Z,19.35
2018-08-22T01:59:54.734Z,19.37
2018-08-22T02:00:54.712Z,19.46
2018-08-22T02:01:54.687Z,19.47
2018-08-22T02:02:54.664Z,19.43
2018-08-22T02:03:54.642Z,19.42
2018-08-22T02:04:54.617Z,19.45
2018-08-22T02:05:54.595Z,19.56
2018-08-22T02:06:54.575Z,19.45
2018-08-22T02:07:54.560Z,19.52
2018-08-22T02:08:54.528Z,19.37
2018-08-22T02:09:54.508Z,19.45
2018-08-22T02:10:54.480Z,19.45
2018-08-22T02:11:54.452Z,19.43
2018-08-22T02:12:54.431Z,19.40
2018-08-22T02:13:54.408Z,19.46
2018-08-22T02:14:54.384Z,19.43
2018-08-22T02:15:54.376Z,19.46
2018-08-22T02:16:54.339Z,19.49
2018-08-22T02:17:54.314Z,19.47
2018-08-22T02:18:54.303Z,19.43
2018-08-22T02:19:54.265Z,19.45
2018-08-22T02:20:54.240Z,19.43
2018-08-22T02:21:54.221Z,19.45
2018-08-22T02:22:54.201Z,19.42
2018-08-22T02:23:54.173Z,19.46
2018-08-22T02:24:54.150Z,19.42
2018-08-22T02:25:54.118Z,19.45
2018-08-22T02:26:54.099Z,19.50
2018-08-22T02:27:54.073Z,19.42
2018-08-22T02:28:54.066Z,19.42
2018-08-22T02:29:54.039Z,19.45
2018-08-22T02:30:54.011Z,19.40
2018-08-22T02:31:53.985Z,19.43
2018-08-22T02:32:53.956Z,19.43
2018-08-22T02:33:53.934Z,19.45
2018-08-22T02:34:53.910Z,19.38
2018-08-22T02:35:53.895Z,19.37
2018-08-22T02:36:53.864Z,19.31
2018-08-22T02:37:53.841Z,19.35
2018-08-22T02:38:53.818Z,19.28
2018-08-22T02:39:53.798Z,19.27
2018-08-22T02:40:53.777Z,19.20
2018-08-22T02:41:53.744Z,19.27
2018-08-22T02:42:53.725Z,19.24
2018-08-22T02:43:53.699Z,19.19
2018-08-22T02:44:53.673Z,19.27
2018-08-22T02:45:53.660Z,19.34
2018-08-22T02:46:53.630Z,19.31
2018-08-22T02:47:53.604Z,19.17
2018-08-22T02:48:53.589Z,19.23
2018-08-22T02:49:53.555Z,19.16
2018-08-22T02:50:53.537Z,19.17
2018-08-22T02:51:53.509Z,19.17
2018-08-22T02:52:53.488Z,19.17
2018-08-22T02:53:53.461Z,19.27
2018-08-22T02:54:53.443Z,19.16
2018-08-22T02:55:53.419Z,19.23
2018-08-22T02:56:53.391Z,19.19
2018-08-22T02:57:53.373Z,19.17
2018-08-22T02:58:53.348Z,19.17
2018-08-22T02:59:53.318Z,19.25
2018-08-22T03:00:53.298Z,19.20
2018-08-22T03:01:53.279Z,19.19
2018-08-22T03:02:53.248Z,19.16
2018-08-22T03:03:53.225Z,19.19
2018-08-22T03:04:53.200Z,19.25
2018-08-22T03:05:53.185Z,19.23
2018-08-22T03:06:53.160Z,19.32
2018-08-22T03:07:53.133Z,19.19
2018-08-22T03:08:53.112Z,19.23
2018-08-22T03:09:53.088Z,19.27
2018-08-22T03:10:53.057Z,19.16
2018-08-22T03:11:53.044Z,19.15
2018-08-22T03:12:53.011Z,19.15
2018-08-22T03:13:52.993Z,19.16
2018-08-22T03:14:52.967Z,19.02
2018-08-22T03:15:52.944Z,19.09
2018-08-22T03:16:52.920Z,19.09
2018-08-22T03:17:52.908Z,19.13
2018-08-22T03:18:52.869Z,19.07
2018-08-22T03:19:52.849Z,19.10
2018-08-22T03:20:52.826Z,19.02
2018-08-22T03:21:52.803Z,18.99
2018-08-22T03:22:52.781Z,19.00
2018-08-22T03:23:52.752Z,18.97
2018-08-22T03:24:52.727Z,19.05
2018-08-22T03:25:52.709Z,19.05
2018-08-22T03:26:52.680Z,19.00
2018-08-22T03:27:52.663Z,18.94
2018-08-22T03:28:52.643Z,18.99
2018-08-22T03:29:52.609Z,19.00
2018-08-22T03:30:52.596Z,19.02
2018-08-22T03:31:52.564Z,19.00
2018-08-22T03:32:52.566Z,19.00
2018-08-22T03:33:52.543Z,18.93
2018-08-22T03:34:52.498Z,19.09
2018-08-22T03:35:52.481Z,19.12
2018-08-22T03:36:52.448Z,18.99
2018-08-22T03:37:52.420Z,19.07
2018-08-22T03:38:52.395Z,19.00
2018-08-22T03:39:52.375Z,18.99
2018-08-22T03:40:52.354Z,18.96
2018-08-22T03:41:52.321Z,18.99
2018-08-22T03:42:52.302Z,18.96
2018-08-22T03:43:52.277Z,19.02
2018-08-22T03:44:52.280Z,18.96
2018-08-22T03:45:52.234Z,19.00
2018-08-22T03:46:52.211Z,18.99
2018-08-22T03:47:52.183Z,18.90
2018-08-22T03:48:52.161Z,18.99
2018-08-22T03:49:52.134Z,18.91
2018-08-22T03:50:52.109Z,18.91
2018-08-22T03:51:52.085Z,18.90
2018-08-22T03:52:52.069Z,18.91
2018-08-22T03:53:52.045Z,18.94
2018-08-22T03:54:52.017Z,18.96
2018-08-22T03:55:51.994Z,18.97
2018-08-22T03:56:51.977Z,19.09
2018-08-22T03:57:51.943Z,19.07
2018-08-22T03:58:51.920Z,19.10
2018-08-22T03:59:51.903Z,19.05
2018-08-22T04:00:51.873Z,19.07
2018-08-22T04:01:51.854Z,19.02
2018-08-22T04:02:51.825Z,19.09
2018-08-22T04:03:51.803Z,19.13
2018-08-22T04:04:51.784Z,19.13
2018-08-22T04:05:51.757Z,19.06
2018-08-22T04:06:51.731Z,19.00
2018-08-22T04:07:51.712Z,19.02
2018-08-22T04:08:51.686Z,18.96
2018-08-22T04:09:51.669Z,19.09
2018-08-22T04:10:51.641Z,19.02
2018-08-22T04:11:51.613Z,19.13
2018-08-22T04:12:51.593Z,19.12
2018-08-22T04:13:51.562Z,19.07
2018-08-22T04:14:51.541Z,19.06
2018-08-22T04:15:51.529Z,19.00
2018-08-22T04:16:51.492Z,18.99
2018-08-22T04:17:51.475Z,19.06
2018-08-22T04:18:51.445Z,18.99
2018-08-22T04:19:51.430Z,18.93
2018-08-22T04:20:51.395Z,18.99
2018-08-22T04:21:51.379Z,18.97
2018-08-22T04:22:51.356Z,19.00
2018-08-22T04:23:51.324Z,18.94
2018-08-22T04:24:51.308Z,19.00
2018-08-22T04:25:51.288Z,19.00
2018-08-22T04:26:51.256Z,18.99
2018-08-22T04:27:51.232Z,18.91
2018-08-22T04:28:51.224Z,18.93
2018-08-22T04:29:51.190Z,18.91
2018-08-22T04:30:51.208Z,18.90
2018-08-22T04:31:51.175Z,18.89
2018-08-22T04:32:51.116Z,18.87
2018-08-22T04:33:51.086Z,18.91
2018-08-22T04:34:51.068Z,18.89
2018-08-22T04:35:51.039Z,18.87
2018-08-22T04:36:51.021Z,18.81
2018-08-22T04:37:50.994Z,18.76
2018-08-22T04:38:50.975Z,18.86
2018-08-22T04:39:50.954Z,18.86
2018-08-22T04:40:50.923Z,18.90
2018-08-22T04:41:50.901Z,18.89
2018-08-22T04:42:50.872Z,18.78
2018-08-22T04:43:50.852Z,18.72
2018-08-22T04:44:50.830Z,18.79
2018-08-22T04:45:50.800Z,18.74
2018-08-22T04:46:50.780Z,18.87
2018-08-22T04:47:50.754Z,18.90
2018-08-22T04:48:50.729Z,18.76
2018-08-22T04:49:50.718Z,18.90
2018-08-22T04:50:50.679Z,18.90
2018-08-22T04:51:50.665Z,18.87
2018-08-22T04:52:50.637Z,18.90
2018-08-22T04:53:50.616Z,18.94
2018-08-22T04:54:50.593Z,18.96
2018-08-22T04:55:50.588Z,19.02
2018-08-22T04:56:50.541Z,18.96
2018-08-22T04:57:50.518Z,18.97
2018-08-22T04:58:50.499Z,18.97
2018-08-22T04:59:50.467Z,18.99
2018-08-22T05:00:50.446Z,19.13
2018-08-22T05:01:50.418Z,18.99
2018-08-22T05:02:50.398Z,19.02
2018-08-22T05:03:50.375Z,19.10
2018-08-22T05:04:50.348Z,19.06
2018-08-22T05:05:50.366Z,19.05
2018-08-22T05:06:50.302Z,19.16
2018-08-22T05:07:50.279Z,19.17
2018-08-22T05:08:50.272Z,19.23
2018-08-22T05:09:50.228Z,19.12
2018-08-22T05:10:50.249Z,19.27
2018-08-22T05:11:50.198Z,19.23
2018-08-22T05:12:50.173Z,19.27
2018-08-22T05:13:50.142Z,19.28
2018-08-22T05:14:50.111Z,19.32
2018-08-22T05:15:50.095Z,19.35
2018-08-22T05:16:50.060Z,19.24
2018-08-22T05:17:50.047Z,19.30
2018-08-22T05:18:50.024Z,19.35
2018-08-22T05:19:49.995Z,19.46
2018-08-22T05:20:49.974Z,19.45
2018-08-22T05:21:49.957Z,19.40
2018-08-22T05:22:49.928Z,19.47
2018-08-22T05:23:49.899Z,19.53
2018-08-22T05:24:49.889Z,19.64
2018-08-22T05:25:49.870Z,19.63
2018-08-22T05:26:49.827Z,19.56
2018-08-22T05:27:49.806Z,19.60
2018-08-22T05:28:50.481Z,19.70
2018-08-22T05:29:49.759Z,19.64
2018-08-22T05:30:49.739Z,19.72
2018-08-22T05:31:49.708Z,19.71
2018-08-22T05:32:49.689Z,19.71
2018-08-22T05:33:49.656Z,19.70
2018-08-22T05:34:49.648Z,19.74
2018-08-22T05:35:49.621Z,19.65
2018-08-22T05:36:49.587Z,19.72
2018-08-22T05:37:49.577Z,19.61
2018-08-22T05:38:49.568Z,19.55
2018-08-22T05:39:49.525Z,19.61
2018-08-22T05:40:49.496Z,19.63
2018-08-22T05:41:49.477Z,19.57
2018-08-22T05:42:49.456Z,19.67
2018-08-22T05:43:49.422Z,19.52
2018-08-22T05:44:49.402Z,19.65
2018-08-22T05:45:49.382Z,19.60
2018-08-22T05:46:49.351Z,19.63
2018-08-22T05:47:49.335Z,19.61
2018-08-22T05:48:49.307Z,19.60
2018-08-22T05:49:49.290Z,19.60
2018-08-22T05:50:49.268Z,19.64
2018-08-22T05:51:49.235Z,19.68
2018-08-22T05:52:49.220Z,19.68
2018-08-22T05:53:49.187Z,19.72
2018-08-22T05:54:49.167Z,19.68
2018-08-22T05:55:49.162Z,19.79
2018-08-22T05:56:49.150Z,19.75
2018-08-22T05:57:49.156Z,19.74
2018-08-22T05:58:49.086Z,19.75
2018-08-22T05:59:49.058Z,19.82
2018-08-22T06:00:49.029Z,19.78
2018-08-22T06:01:49.002Z,19.80
2018-08-22T06:02:48.984Z,19.89
2018-08-22T06:03:48.964Z,19.89
2018-08-22T06:04:48.933Z,19.90
2018-08-22T06:05:49.118Z,20.01
2018-08-22T06:06:48.886Z,19.98
2018-08-22T06:07:48.869Z,19.97
2018-08-22T06:08:48.910Z,19.98
2018-08-22T06:09:48.817Z,20.01
2018-08-22T06:10:48.794Z,20.01
2018-08-22T06:11:48.777Z,20.04
2018-08-22T06:12:48.779Z,20.05
2018-08-22T06:13:48.727Z,20.10
2018-08-22T06:14:48.704Z,20.16
2018-08-22T06:15:48.739Z,20.20
2018-08-22T06:16:48.655Z,20.19
2018-08-22T06:17:48.628Z,20.05
2018-08-22T06:18:48.607Z,20.19
2018-08-22T06:19:48.581Z,20.20
2018-08-22T06:20:48.558Z,20.19
2018-08-22T06:21:48.541Z,20.27
2018-08-22T06:22:48.510Z,20.35
2018-08-22T06:23:48.491Z,20.23
2018-08-22T06:24:48.508Z,20.27
2018-08-22T06:25:48.440Z,20.27
2018-08-22T06:26:48.424Z,20.35
2018-08-22T06:27:48.395Z,20.40
2018-08-22T06:28:48.373Z,20.35
2018-08-22T06:29:48.357Z,20.41
2018-08-22T06:30:48.326Z,20.37
2018-08-22T06:31:48.309Z,20.30
2018-08-22T06:32:48.279Z,20.42
2018-08-22T06:33:48.257Z,20.41
2018-08-22T06:34:48.287Z,20.41
2018-08-22T06:35:48.218Z,20.53
2018-08-22T06:36:48.203Z,20.54
2018-08-22T06:37:48.168Z,20.48
2018-08-22T06:38:48.146Z,20.54
2018-08-22T06:39:48.117Z,20.51
2018-08-22T06:40:48.095Z,20.60
2018-08-22T06:41:48.075Z,20.61
2018-08-22T06:42:48.050Z,20.61
2018-08-22T06:43:48.031Z,20.66
2018-08-22T06:44:48.006Z,20.71
2018-08-22T06:45:47.978Z,20.71
2018-08-22T06:46:47.972Z,20.83
2018-08-22T06:47:47.938Z,20.83
2018-08-22T06:48:47.922Z,20.90
2018-08-22T06:49:47.890Z,20.94
2018-08-22T06:50:47.864Z,20.98
2018-08-22T06:51:47.848Z,21.08
2018-08-22T06:52:47.818Z,21.01
2018-08-22T06:53:47.801Z,21.09
2018-08-22T06:54:47.778Z,21.12
2018-08-22T06:55:47.749Z,21.22
2018-08-22T06:56:47.733Z,21.27
2018-08-22T06:57:47.701Z,21.23
2018-08-22T06:58:47.686Z,21.38
2018-08-22T06:59:47.659Z,21.45
2018-08-22T07:00:47.635Z,21.58
2018-08-22T07:01:47.618Z,21.56
2018-08-22T07:02:47.589Z,21.59
2018-08-22T07:03:47.568Z,21.66
2018-08-22T07:04:47.545Z,21.67
2018-08-22T07:05:47.523Z,21.70
2018-08-22T07:06:47.506Z,21.73
2018-08-22T07:07:47.478Z,21.76
2018-08-22T07:08:47.460Z,21.76
2018-08-22T07:09:47.436Z,21.82
2018-08-22T07:10:47.409Z,21.82
2018-08-22T07:11:47.394Z,21.83
2018-08-22T07:12:47.370Z,21.85
2018-08-22T07:13:47.344Z,21.83
2018-08-22T07:14:47.319Z,21.86
2018-08-22T07:15:47.298Z,21.97
2018-08-22T07:16:47.277Z,21.89
2018-08-22T07:17:47.262Z,21.86
2018-08-22T07:18:47.233Z,21.83
2018-08-22T07:19:47.215Z,21.82
2018-08-22T07:20:47.204Z,21.82
2018-08-22T07:21:47.167Z,21.83
2018-08-22T07:22:47.141Z,21.77
2018-08-22T07:23:47.127Z,21.70
2018-08-22T07:24:47.125Z,21.71
2018-08-22T07:25:47.074Z,21.74
2018-08-22T07:26:47.058Z,21.64
2018-08-22T07:27:47.031Z,21.62
2018-08-22T07:28:47.010Z,21.62
2018-08-22T07:29:46.988Z,21.61
2018-08-22T07:30:46.964Z,21.58
2018-08-22T07:31:46.938Z,21.59
2018-08-22T07:32:46.926Z,21.59
2018-08-22T07:33:46.898Z,21.58
2018-08-22T07:34:46.875Z,21.62
2018-08-22T07:35:46.943Z,21.68
2018-08-22T07:36:46.825Z,21.73
2018-08-22T07:37:46.808Z,21.82
2018-08-22T07:38:46.790Z,21.83
2018-08-22T07:39:46.770Z,21.80
2018-08-22T07:40:46.749Z,21.86
2018-08-22T07:41:46.718Z,21.83
2018-08-22T07:42:46.712Z,21.93
2018-08-22T07:43:46.678Z,21.90
2018-08-22T07:44:46.649Z,22.04
2018-08-22T07:45:46.633Z,22.07
2018-08-22T07:46:46.610Z,22.00
2018-08-22T07:47:46.583Z,22.09
2018-08-22T07:48:46.565Z,22.11
2018-08-22T07:49:46.542Z,22.08
2018-08-22T07:50:46.517Z,22.18
2018-08-22T07:51:46.497Z,22.20
2018-08-22T07:52:46.479Z,22.26
2018-08-22T07:53:46.461Z,22.24
2018-08-22T07:54:46.437Z,22.24
2018-08-22T07:55:46.408Z,22.33
2018-08-22T07:56:46.395Z,22.30
2018-08-22T07:57:46.362Z,22.36
2018-08-22T07:58:46.343Z,22.42
2018-08-22T07:59:46.332Z,22.48
2018-08-22T08:00:46.296Z,22.54
2018-08-22T08:01:46.326Z,22.52
2018-08-22T08:02:46.255Z,22.61
2018-08-22T08:03:46.232Z,22.61
2018-08-22T08:04:46.211Z,22.66
2018-08-22T08:05:46.196Z,22.73
2018-08-22T08:06:46.165Z,22.73
2018-08-22T08:07:46.145Z,22.84
2018-08-22T08:08:46.198Z,22.81
2018-08-22T08:09:46.096Z,22.79
2018-08-22T08:10:46.080Z,22.89
2018-08-22T08:11:46.056Z,22.89
2018-08-22T08:12:46.031Z,22.92
2018-08-22T08:13:46.022Z,22.92
2018-08-22T08:14:46.001Z,23.00
2018-08-22T08:15:45.971Z,23.03
2018-08-22T08:16:45.948Z,23.12
2018-08-22T08:17:45.938Z,23.15
2018-08-22T08:18:45.910Z,23.12
2018-08-22T08:19:45.913Z,23.16
2018-08-22T08:20:45.862Z,23.21
2018-08-22T08:21:45.834Z,23.21
2018-08-22T08:22:45.812Z,23.19
2018-08-22T08:23:45.796Z,23.35
2018-08-22T08:24:45.770Z,23.47
2018-08-22T08:25:45.755Z,23.47
2018-08-22T08:26:45.728Z,23.47
2018-08-22T08:27:45.713Z,23.50
2018-08-22T08:28:45.686Z,23.50
2018-08-22T08:29:45.665Z,23.57
2018-08-22T08:30:45.657Z,23.59
2018-08-22T08:31:45.619Z,23.66
2018-08-22T08:32:45.601Z,23.63
2018-08-22T08:33:45.579Z,23.72
2018-08-22T08:34:45.561Z,23.74
2018-08-22T08:35:45.551Z,23.78
2018-08-22T08:36:45.523Z,23.79
2018-08-22T08:37:45.493Z,23.90
2018-08-22T08:38:45.478Z,23.79
2018-08-22T08:39:45.449Z,23.81
2018-08-22T08:40:45.440Z,23.99
2018-08-22T08:41:45.502Z,24.03
2018-08-22T08:42:45.396Z,24.04
2018-08-22T08:43:45.366Z,24.09
2018-08-22T08:44:45.358Z,24.04
2018-08-22T08:45:45.319Z,24.08
2018-08-22T08:46:45.309Z,24.12
2018-08-22T08:47:45.308Z,24.22
2018-08-22T08:48:45.266Z,24.24
2018-08-22T08:49:45.248Z,24.21
2018-08-22T08:50:45.216Z,24.36
2018-08-22T08:51:45.211Z,24.34
2018-08-22T08:52:45.182Z,24.44
2018-08-22T08:53:45.152Z,24.51
2018-08-22T08:54:45.132Z,24.40
2018-08-22T08:55:45.128Z,24.39
2018-08-22T08:56:45.099Z,24.56
2018-08-22T08:57:45.077Z,24.45
2018-08-22T08:58:45.053Z,24.54
2018-08-22T08:59:45.030Z,24.61
2018-08-22T09:00:45.058Z,24.54
2018-08-22T09:01:44.987Z,24.69
2018-08-22T09:02:44.997Z,24.74
2018-08-22T09:03:44.968Z,24.80
2018-08-22T09:04:44.927Z,24.74
2018-08-22T09:05:44.910Z,24.89
2018-08-22T09:06:44.893Z,25.05
2018-08-22T09:07:44.864Z,25.07
2018-08-22T09:08:44.851Z,25.11
2018-08-22T09:09:44.826Z,25.12
2018-08-22T09:10:44.844Z,25.09
2018-08-22T09:11:44.788Z,25.17
2018-08-22T09:12:44.767Z,25.19
2018-08-22T09:13:44.749Z,25.15
2018-08-22T09:14:44.728Z,25.20
2018-08-22T09:15:44.706Z,25.12
2018-08-22T09:16:44.682Z,25.15
2018-08-22T09:17:44.663Z,25.17
2018-08-22T09:18:44.641Z,25.14
2018-08-22T09:19:44.632Z,25.22
2018-08-22T09:20:44.605Z,25.33
2018-08-22T09:21:44.592Z,25.30
2018-08-22T09:22:44.564Z,25.39
2018-08-22T09:23:44.540Z,25.24
2018-08-22T09:24:44.522Z,25.37
2018-08-22T09:25:44.538Z,25.38
2018-08-22T09:26:44.484Z,25.45
2018-08-22T09:27:44.466Z,25.45
2018-08-22T09:28:44.446Z,25.57
2018-08-22T09:29:44.428Z,25.63
2018-08-22T09:30:44.411Z,25.63
2018-08-22T09:31:44.382Z,25.67
2018-08-22T09:32:44.364Z,25.76
2018-08-22T09:33:44.404Z,25.91
2018-08-22T09:34:44.319Z,25.89
2018-08-22T09:35:44.305Z,25.97
2018-08-22T09:36:44.286Z,26.00
2018-08-22T09:37:44.262Z,26.03
2018-08-22T09:38:44.240Z,26.07
2018-08-22T09:39:44.276Z,26.06
2018-08-22T09:40:44.225Z,26.04
2018-08-22T09:41:44.181Z,25.99
2018-08-22T09:42:44.165Z,26.06
2018-08-22T09:43:44.143Z,26.15
2018-08-22T09:44:44.150Z,26.20
2018-08-22T09:45:44.108Z,26.22
2018-08-22T09:46:44.149Z,26.34
2018-08-22T09:47:44.062Z,26.38
2018-08-22T09:48:44.043Z,26.39
2018-08-22T09:49:44.028Z,26.37
2018-08-22T09:50:44.014Z,26.39
2018-08-22T09:51:43.997Z,26.45
2018-08-22T09:52:43.967Z,26.38
2018-08-22T09:53:43.946Z,26.53
2018-08-22T09:54:43.966Z,26.45
2018-08-22T09:55:43.910Z,26.56
2018-08-22T09:56:43.888Z,26.63
2018-08-22T09:57:43.875Z,26.68
2018-08-22T09:58:43.849Z,26.79
2018-08-22T09:59:43.834Z,26.82
2018-08-22T10:00:43.883Z,26.87
2018-08-22T10:01:43.793Z,26.78
2018-08-22T10:02:43.777Z,26.93
2018-08-22T10:03:43.762Z,26.84
2018-08-22T10:04:43.739Z,26.93
2018-08-22T10:05:43.722Z,27.04
2018-08-22T10:06:43.759Z,27.00
2018-08-22T10:07:43.678Z,26.99
2018-08-22T10:08:43.659Z,26.97
2018-08-22T10:09:43.641Z,27.04
2018-08-22T10:10:43.623Z,26.91
2018-08-22T10:11:43.618Z,27.00
2018-08-22T10:12:43.607Z,26.99
2018-08-22T10:13:43.568Z,26.99
2018-08-22T10:14:43.595Z,27.06
2018-08-22T10:15:43.528Z,27.15
2018-08-22T10:16:43.514Z,27.19
2018-08-22T10:17:43.489Z,27.27
2018-08-22T10:18:43.478Z,27.18
2018-08-22T10:19:43.496Z,27.30
2018-08-22T10:20:43.443Z,27.24
2018-08-22T10:21:43.414Z,27.28
2018-08-22T10:22:43.397Z,27.30
2018-08-22T10:23:43.387Z,27.33
2018-08-22T10:24:43.397Z,27.30
2018-08-22T10:25:43.356Z,27.33
2018-08-22T10:26:43.326Z,27.34
2018-08-22T10:27:43.314Z,27.49
2018-08-22T10:28:43.289Z,27.46
2018-08-22T10:29:43.268Z,27.55
2018-08-22T10:30:43.248Z,27.43
2018-08-22T10:31:43.233Z,27.49
2018-08-22T10:32:43.265Z,27.57
2018-08-22T10:33:43.195Z,27.59
2018-08-22T10:34:43.183Z,27.66
2018-08-22T10:35:43.156Z,27.76
2018-08-22T10:36:43.142Z,27.75
2018-08-22T10:37:43.127Z,27.75
2018-08-22T10:38:43.107Z,27.80
2018-08-22T10:39:43.089Z,27.86
2018-08-22T10:40:43.066Z,27.86
2018-08-22T10:41:43.054Z,27.93
2018-08-22T10:42:43.029Z,27.94
2018-08-22T10:43:43.017Z,27.98
2018-08-22T10:44:42.999Z,28.02
2018-08-22T10:45:42.978Z,28.06
2018-08-22T10:46:42.961Z,28.05
2018-08-22T10:47:42.940Z,28.05
2018-08-22T10:48:42.919Z,28.14
2018-08-22T10:49:42.909Z,28.14
2018-08-22T10:50:42.908Z,28.12
2018-08-22T10:51:42.871Z,28.23
2018-08-22T10:52:42.850Z,28.33
2018-08-22T10:53:42.834Z,28.36
2018-08-22T10:54:42.820Z,28.41
2018-08-22T10:55:42.796Z,28.41
2018-08-22T10:56:42.786Z,28.51
2018-08-22T10:57:42.757Z,28.57
2018-08-22T10:58:42.745Z,28.55
2018-08-22T10:59:42.724Z,28.48
2018-08-22T11:00:42.704Z,28.42
2018-08-22T11:01:42.698Z,28.46
2018-08-22T11:02:42.672Z,28.43
2018-08-22T11:03:42.657Z,28.41
2018-08-22T11:04:42.647Z,28.42
2018-08-22T11:05:42.617Z,28.48
2018-08-22T11:06:42.600Z,28.51
2018-08-22T11:07:42.590Z,28.54
2018-08-22T11:08:42.568Z,28.53
2018-08-22T11:09:42.549Z,28.43
2018-08-22T11:10:42.530Z,28.49
2018-08-22T11:11:42.515Z,28.49
2018-08-22T11:12:42.497Z,28.45
2018-08-22T11:13:42.480Z,28.48
2018-08-22T11:14:42.458Z,28.53
2018-08-22T11:15:42.512Z,28.67
2018-08-22T11:16:42.425Z,28.73
2018-08-22T11:17:42.410Z,28.79
2018-08-22T11:18:42.395Z,28.92
2018-08-22T11:19:42.377Z,28.97
2018-08-22T11:20:42.358Z,28.88
2018-08-22T11:21:42.339Z,28.98
2018-08-22T11:22:42.329Z,29.11
2018-08-22T11:23:42.306Z,29.06
2018-08-22T11:24:42.292Z,29.02
2018-08-22T11:25:42.267Z,29.06
2018-08-22T11:26:42.256Z,29.06
2018-08-22T11:27:42.245Z,29.18
2018-08-22T11:28:42.218Z,29.21
2018-08-22T11:29:42.206Z,29.29
2018-08-22T11:30:42.196Z,29.32
2018-08-22T11:31:42.163Z,29.35
2018-08-22T11:32:42.151Z,29.39
2018-08-22T11:33:42.131Z,29.39
2018-08-22T11:34:42.119Z,29.50
2018-08-22T11:35:42.101Z,29.55
2018-08-22T11:36:42.083Z,29.54
2018-08-22T11:37:42.062Z,29.48
2018-08-22T11:38:42.047Z,29.40
2018-08-22T11:39:42.042Z,29.52
2018-08-22T11:40:42.017Z,29.58
2018-08-22T11:41:42.002Z,29.58
2018-08-22T11:42:41.986Z,29.58
2018-08-22T11:43:41.976Z,29.55
2018-08-22T11:44:41.963Z,29.69
2018-08-22T11:45:41.927Z,29.69
2018-08-22T11:46:41.940Z,29.85
2018-08-22T11:47:41.905Z,29.82
2018-08-22T11:48:41.883Z,29.82
2018-08-22T11:49:41.866Z,29.82
2018-08-22T11:50:41.845Z,29.76
2018-08-22T11:51:41.836Z,29.76
2018-08-22T11:52:41.825Z,29.70
2018-08-22T11:53:41.797Z,29.73
2018-08-22T11:54:41.786Z,29.72
2018-08-22T11:55:41.770Z,29.82
2018-08-22T11:56:41.755Z,29.75
2018-08-22T11:57:41.731Z,29.79
2018-08-22T11:58:41.721Z,29.81
2018-08-22T11:59:41.709Z,29.89
2018-08-22T12:00:41.688Z,29.82
2018-08-22T12:01:41.672Z,29.82
2018-08-22T12:02:41.649Z,29.85
2018-08-22T12:03:41.641Z,29.75
2018-08-22T12:04:41.621Z,29.72
2018-08-22T12:05:41.604Z,29.63
2018-08-22T12:06:41.593Z,29.47
2018-08-22T12:07:41.567Z,29.57
2018-08-22T12:08:41.552Z,29.60
2018-08-22T12:09:41.540Z,29.65
2018-08-22T12:10:41.575Z,29.65
2018-08-22T12:11:41.503Z,29.54
2018-08-22T12:12:41.493Z,29.57
2018-08-22T12:13:41.481Z,29.55
2018-08-22T12:14:41.467Z,29.52
2018-08-22T12:15:41.434Z,29.63
2018-08-22T12:16:41.421Z,29.63
2018-08-22T12:17:41.408Z,29.69
2018-08-22T12:18:41.403Z,29.57
2018-08-22T12:19:41.378Z,29.61
2018-08-22T12:20:41.358Z,29.61
2018-08-22T12:21:41.345Z,29.51
2018-08-22T12:22:41.330Z,29.47
2018-08-22T12:23:41.307Z,29.48
2018-08-22T12:24:41.293Z,29.42
2018-08-22T12:25:41.273Z,29.33
2018-08-22T12:26:41.273Z,29.36
2018-08-22T12:27:41.244Z,29.40
2018-08-22T12:28:41.262Z,29.45
2018-08-22T12:29:41.209Z,29.38
2018-08-22T12:30:41.241Z,29.36
2018-08-22T12:31:41.180Z,29.38
2018-08-22T12:32:41.163Z,29.42
2018-08-22T12:33:41.145Z,29.45
2018-08-22T12:34:41.128Z,29.51
2018-08-22T12:35:41.110Z,29.61
2018-08-22T12:36:41.090Z,29.58
2018-08-22T12:37:41.135Z,29.66
2018-08-22T12:38:41.064Z,29.65
2018-08-22T12:39:41.043Z,29.60
2018-08-22T12:40:41.035Z,29.69
2018-08-22T12:41:41.005Z,29.63
2018-08-22T12:42:40.995Z,29.65
2018-08-22T12:43:40.976Z,29.52
2018-08-22T12:44:40.961Z,29.48
2018-08-22T12:45:40.942Z,29.39
2018-08-22T12:46:40.925Z,29.33
2018-08-22T12:47:40.908Z,29.28
2018-08-22T12:48:40.906Z,29.28
2018-08-22T12:49:40.875Z,29.30
2018-08-22T12:50:40.865Z,29.30
2018-08-22T12:51:40.842Z,29.39
2018-08-22T12:52:40.826Z,29.40